Time;durP1;ratioP1;P1;durP2;ratioP2;P2;SDS_P1;SDS_P2;PMS_P1;PMS_P2;Temp;Humidity;BMP_temperature;BMP_pressure;BME280_temperature;BME280_humidity;BME280_pressure;Samples;Min_cycle;Max_cycle;Signal;HPM_P1;HPM_P2
2021/04/04 00:01:28;;;;;;;11.20;7.13;;;5.40;57.00;;;;;;4994236;28;20239;-91
2021/04/04 00:03:53;;;;;;;12.93;6.40;;;5.20;57.00;;;;;;4992768;28;20204;-89
2021/04/04 00:06:19;;;;;;;21.73;8.37;;;5.40;57.10;;;;;;4994093;28;20196;-89
2021/04/04 00:08:45;;;;;;;14.40;7.50;;;5.30;57.20;;;;;;4992854;28;20179;-89
2021/04/04 00:11:33;;;;;;;18.33;7.70;;;5.30;57.30;;;;;;4994128;28;20618;-88
2021/04/04 00:14:05;;;;;;;14.40;8.05;;;5.20;57.70;;;;;;4986506;28;20177;-90
2021/04/04 00:16:30;;;;;;;15.13;7.38;;;5.20;57.00;;;;;;5008674;28;20173;-88
2021/04/04 00:19:00;;;;;;;19.60;7.40;;;5.40;57.00;;;;;;4993733;28;20169;-89
2021/04/04 00:21:26;;;;;;;18.10;7.68;;;5.30;57.50;;;;;;4992528;28;20257;-89
2021/04/04 00:23:52;;;;;;;17.30;7.57;;;5.30;57.40;;;;;;5009162;28;20292;-87
2021/04/04 00:26:17;;;;;;;19.10;8.60;;;6.20;57.30;;;;;;4992541;28;20624;-89
2021/04/04 00:28:43;;;;;;;25.47;10.20;;;4.90;56.70;;;;;;4993807;28;20263;-90
2021/04/04 00:31:08;;;;;;;15.00;9.20;;;5.30;57.40;;;;;;4993856;28;20177;-89
2021/04/04 00:33:35;;;;;;;15.50;7.30;;;5.40;57.20;;;;;;5008747;28;20189;-89
2021/04/04 00:36:01;;;;;;;18.58;8.77;;;5.40;56.80;;;;;;4992508;28;20181;-89
2021/04/04 00:38:27;;;;;;;18.73;8.80;;;6.10;57.50;;;;;;4992254;28;20228;-88
2021/04/04 00:40:52;;;;;;;14.10;7.50;;;5.50;57.20;;;;;;5008745;28;20496;-88
2021/04/04 00:43:18;;;;;;;19.03;7.10;;;5.70;57.20;;;;;;4992325;28;20460;-88
2021/04/04 00:45:44;;;;;;;15.10;9.23;;;5.70;57.10;;;;;;5008726;28;20201;-89
2021/04/04 00:48:10;;;;;;;18.00;7.70;;;5.70;57.30;;;;;;4992136;28;20225;-89
2021/04/04 00:50:38;;;;;;;15.47;7.00;;;5.80;56.80;;;;;;4993952;28;20207;-88
2021/04/04 00:53:05;;;;;;;20.73;8.95;;;6.70;57.50;;;;;;4992403;28;20947;-88
2021/04/04 00:55:31;;;;;;;16.48;8.05;;;5.70;56.60;;;;;;5008635;28;20625;-88
2021/04/04 00:57:57;;;;;;;13.47;7.80;;;5.70;56.90;;;;;;5008509;28;20173;-89
2021/04/04 01:00:26;;;;;;;17.07;8.27;;;5.90;57.00;;;;;;4992366;28;20792;-89
2021/04/04 01:02:54;;;;;;;17.08;7.93;;;5.90;56.70;;;;;;4992001;28;20657;-89
2021/04/04 01:05:30;;;;;;;16.98;8.15;;;6.00;56.40;;;;;;4992316;28;20507;-89
2021/04/04 01:07:57;;;;;;;14.85;6.65;;;6.10;56.00;;;;;;4992303;28;20219;-88
2021/04/04 01:10:27;;;;;;;20.60;7.38;;;5.90;56.30;;;;;;4992279;28;20617;-90
2021/04/04 01:13:17;;;;;;;16.77;7.18;;;6.00;55.50;;;;;;4992117;28;20184;-88
2021/04/04 01:16:03;;;;;;;11.60;6.72;;;6.00;55.30;;;;;;5008502;28;20320;-90
2021/04/04 01:18:40;;;;;;;16.80;7.97;;;5.90;55.40;;;;;;4993441;28;20245;-90
2021/04/04 01:21:15;;;;;;;16.90;6.68;;;6.00;55.20;;;;;;4992095;28;20177;-90
2021/04/04 01:24:10;;;;;;;15.27;7.68;;;6.00;55.50;;;;;;4991935;28;20209;-89
2021/04/04 01:26:41;;;;;;;13.85;7.18;;;5.90;55.40;;;;;;5008313;28;20170;-88
2021/04/04 01:29:09;;;;;;;15.95;7.25;;;6.00;55.20;;;;;;5010409;28;20260;-88
2021/04/04 01:31:36;;;;;;;12.35;6.80;;;6.10;54.90;;;;;;4996804;28;20188;-88
2021/04/04 01:34:03;;;;;;;13.20;7.80;;;6.10;54.90;;;;;;4996880;28;20380;-88
2021/04/04 01:36:30;;;;;;;16.40;7.97;;;6.10;55.20;;;;;;4995532;28;20260;-88
2021/04/04 01:38:57;;;;;;;12.73;6.82;;;6.20;55.30;;;;;;4996770;28;20412;-88
2021/04/04 01:41:27;;;;;;;15.93;6.93;;;6.00;55.20;;;;;;5011879;28;20181;-88
2021/04/04 01:43:59;;;;;;;23.30;7.90;;;6.10;55.50;;;;;;5011886;28;20468;-90
2021/04/04 01:46:25;;;;;;;11.45;7.15;;;6.30;56.40;;;;;;4995507;28;20259;-89
2021/04/04 01:48:53;;;;;;;10.23;6.40;;;7.10;56.60;;;;;;4995374;28;20276;-89
2021/04/04 01:51:20;;;;;;;12.00;6.60;;;6.10;55.90;;;;;;4995342;28;20512;-89
2021/04/04 01:53:46;;;;;;;14.68;7.38;;;6.00;55.80;;;;;;4996672;28;20424;-89
2021/04/04 01:56:12;;;;;;;15.73;7.45;;;6.00;55.80;;;;;;4995202;28;20170;-89
2021/04/04 01:58:39;;;;;;;16.87;7.27;;;6.00;55.50;;;;;;4996670;28;20514;-89
2021/04/04 02:01:06;;;;;;;14.40;6.53;;;6.90;55.70;;;;;;4996467;28;20635;-88
2021/04/04 02:03:34;;;;;;;10.65;5.65;;;6.30;54.10;;;;;;4996243;28;20559;-88
2021/04/04 02:06:00;;;;;;;11.68;5.82;;;6.40;52.90;;;;;;4997613;28;20169;-89
2021/04/04 02:08:27;;;;;;;12.75;5.15;;;6.40;52.00;;;;;;4998749;28;20185;-89
2021/04/04 02:10:54;;;;;;;10.32;5.80;;;6.40;51.60;;;;;;5000241;28;20166;-89
2021/04/04 02:13:20;;;;;;;13.80;7.22;;;6.30;51.50;;;;;;4998885;28;20212;-89
2021/04/04 02:15:47;;;;;;;9.32;4.78;;;6.40;51.40;;;;;;4996588;28;20165;-88
2021/04/04 02:18:14;;;;;;;14.68;5.30;;;6.60;51.50;;;;;;4996398;28;20177;-88
2021/04/04 02:20:40;;;;;;;16.83;5.70;;;6.40;51.20;;;;;;4995052;28;20260;-89
2021/04/04 02:23:09;;;;;;;18.45;5.32;;;6.40;51.00;;;;;;5010886;28;20456;-89
2021/04/04 02:25:35;;;;;;;12.98;4.95;;;6.40;50.90;;;;;;4995914;28;20629;-88
2021/04/04 02:28:00;;;;;;;13.63;4.93;;;6.40;51.10;;;;;;5011123;28;20184;-89
2021/04/04 02:30:27;;;;;;;22.13;5.60;;;6.50;51.20;;;;;;5010931;28;20471;-89
2021/04/04 02:33:28;;;;;;;19.17;5.40;;;6.40;51.10;;;;;;4994668;28;20181;-88
2021/04/04 02:36:03;;;;;;;14.60;5.47;;;6.40;51.40;;;;;;4994076;28;20184;-88
2021/04/04 02:38:35;;;;;;;17.70;5.78;;;6.40;51.00;;;;;;4995854;28;20521;-89
2021/04/04 02:41:03;;;;;;;7.45;5.00;;;6.30;51.20;;;;;;5009871;28;20627;-88
2021/04/04 02:43:31;;;;;;;7.43;4.68;;;6.30;50.70;;;;;;4994181;28;20259;-89
2021/04/04 02:45:59;;;;;;;16.38;5.78;;;6.30;50.50;;;;;;4995516;28;20177;-88
2021/04/04 02:48:31;;;;;;;25.02;5.00;;;6.40;50.70;;;;;;4994419;28;20552;-89
2021/04/04 02:51:01;;;;;;;12.77;4.35;;;6.50;50.70;;;;;;5010578;28;20644;-89
2021/04/04 02:53:32;;;;;;;9.10;4.00;;;6.50;50.50;;;;;;4995284;28;20174;-88
2021/04/04 02:56:00;;;;;;;17.23;4.97;;;6.60;50.40;;;;;;4994121;28;20777;-90
2021/04/04 02:58:28;;;;;;;9.43;4.10;;;6.60;50.40;;;;;;4994092;28;20378;-89
2021/04/04 03:00:57;;;;;;;22.60;5.35;;;6.60;50.50;;;;;;5010246;28;20417;-88
2021/04/04 03:03:25;;;;;;;12.55;5.55;;;6.50;50.20;;;;;;4995218;28;20531;-89
2021/04/04 03:05:52;;;;;;;18.03;5.47;;;6.60;50.10;;;;;;5010229;28;20228;-89
2021/04/04 03:08:19;;;;;;;13.15;5.72;;;6.50;50.30;;;;;;4995234;28;20424;-89
2021/04/04 03:10:50;;;;;;;16.23;4.93;;;6.60;50.50;;;;;;4993846;28;20526;-89
2021/04/04 03:13:18;;;;;;;11.33;4.77;;;6.50;50.60;;;;;;5010226;28;20181;-89
2021/04/04 03:15:44;;;;;;;20.92;4.78;;;6.50;50.30;;;;;;4995092;28;20475;-89
2021/04/04 03:18:10;;;;;;;11.07;4.80;;;6.50;49.90;;;;;;4993712;28;20180;-89
2021/04/04 03:20:35;;;;;;;8.73;3.93;;;6.50;50.10;;;;;;4994940;28;20421;-89
2021/04/04 03:23:01;;;;;;;12.50;4.47;;;6.50;50.30;;;;;;4995138;28;20225;-89
2021/04/04 03:25:27;;;;;;;10.10;3.20;;;6.60;50.10;;;;;;4994808;28;20215;-89
2021/04/04 03:27:55;;;;;;;16.30;4.63;;;7.20;50.60;;;;;;5010010;28;20408;-89
2021/04/04 03:30:42;;;;;;;15.18;5.00;;;6.50;50.20;;;;;;4994732;28;20420;-90
2021/04/04 03:33:09;;;;;;;14.38;4.78;;;6.50;49.90;;;;;;4994586;28;20204;-90
2021/04/04 03:35:34;;;;;;;16.43;4.63;;;6.50;50.00;;;;;;5009935;28;20515;-90
2021/04/04 03:38:03;;;;;;;15.03;5.73;;;6.60;50.20;;;;;;4993291;28;20455;-89
2021/04/04 03:40:30;;;;;;;21.38;4.75;;;6.60;50.10;;;;;;5009576;28;20279;-91
2021/04/04 03:42:58;;;;;;;10.20;5.90;;;6.60;49.80;;;;;;4994465;28;20251;-88
2021/04/04 03:45:24;;;;;;;6.55;4.90;;;6.60;50.30;;;;;;5009705;28;20209;-88
2021/04/04 03:47:51;;;;;;;13.77;5.13;;;6.60;49.90;;;;;;4993149;28;20221;-90
2021/04/04 03:50:18;;;;;;;12.73;6.63;;;6.70;49.60;;;;;;4994581;28;20417;-89
2021/04/04 03:52:46;;;;;;;15.63;6.50;;;6.70;49.70;;;;;;4994230;28;20169;-89
2021/04/04 03:55:15;;;;;;;14.07;5.75;;;6.70;49.80;;;;;;4993293;28;20180;-89
2021/04/04 03:57:43;;;;;;;10.63;5.85;;;6.70;49.90;;;;;;5009618;28;20649;-88
2021/04/04 04:00:10;;;;;;;7.72;6.70;;;6.80;49.90;;;;;;4998501;28;20244;-89
2021/04/04 04:02:37;;;;;;;13.00;6.38;;;6.80;49.90;;;;;;5002087;28;20173;-89
2021/04/04 04:05:04;;;;;;;16.65;7.10;;;6.80;49.30;;;;;;5018446;28;20253;-88
2021/04/04 04:07:31;;;;;;;13.63;7.85;;;6.80;49.30;;;;;;4996139;28;20173;-88
2021/04/04 04:09:58;;;;;;;15.48;6.72;;;6.80;49.30;;;;;;4993942;28;20228;-89
2021/04/04 04:12:26;;;;;;;16.38;7.95;;;6.70;49.50;;;;;;4993919;28;20201;-88
2021/04/04 04:14:52;;;;;;;15.13;7.90;;;6.70;49.70;;;;;;4994304;28;20308;-88
2021/04/04 04:17:18;;;;;;;12.18;7.15;;;6.70;49.80;;;;;;5009277;28;20185;-89
2021/04/04 04:19:44;;;;;;;15.73;6.40;;;6.70;50.00;;;;;;5009058;28;20176;-88
2021/04/04 04:22:10;;;;;;;15.83;5.03;;;6.60;50.10;;;;;;4992735;28;20173;-88
2021/04/04 04:24:36;;;;;;;10.00;5.68;;;6.40;50.30;;;;;;4992823;28;20963;-89
2021/04/04 04:27:04;;;;;;;14.63;4.82;;;6.50;50.60;;;;;;4993702;28;20173;-88
2021/04/04 04:29:37;;;;;;;8.88;4.93;;;6.60;50.40;;;;;;4992616;28;20169;-90
2021/04/04 04:32:04;;;;;;;11.20;4.90;;;6.50;50.50;;;;;;4992639;28;20656;-88
2021/04/04 04:34:31;;;;;;;11.88;5.00;;;6.60;50.80;;;;;;4994223;28;20162;-88
2021/04/04 04:36:58;;;;;;;13.48;4.88;;;6.50;51.10;;;;;;4993821;28;20767;-89
2021/04/04 04:39:25;;;;;;;11.27;4.40;;;6.30;51.00;;;;;;4992531;28;20186;-89
2021/04/04 04:41:54;;;;;;;22.48;4.35;;;6.60;51.00;;;;;;4993676;28;20170;-88
2021/04/04 04:44:25;;;;;;;19.25;5.20;;;6.40;51.20;;;;;;4992269;28;20209;-87
2021/04/04 04:46:53;;;;;;;8.48;4.50;;;6.50;51.20;;;;;;4992192;28;20221;-88
2021/04/04 04:49:19;;;;;;;21.47;6.73;;;6.60;51.10;;;;;;4993604;28;20208;-89
2021/04/04 04:51:54;;;;;;;5.83;4.50;;;6.50;51.30;;;;;;4992291;28;20452;-88
2021/04/04 04:54:20;;;;;;;14.48;4.85;;;6.30;51.30;;;;;;4993716;28;20459;-89
2021/04/04 04:56:47;;;;;;;14.47;4.93;;;7.10;51.90;;;;;;4993562;28;20173;-89
2021/04/04 04:59:17;;;;;;;13.75;6.65;;;6.40;51.10;;;;;;4992318;28;20515;-89
2021/04/04 05:02:05;;;;;;;12.35;4.78;;;6.40;51.20;;;;;;4992096;28;20228;-90
2021/04/04 05:04:31;;;;;;;8.00;5.53;;;7.20;52.20;;;;;;4996337;28;20231;-89
2021/04/04 05:06:58;;;;;;;10.38;5.68;;;6.00;51.20;;;;;;4997681;28;20580;-90
2021/04/04 05:09:25;;;;;;;15.35;5.55;;;6.40;51.70;;;;;;5012507;28;20226;-88
2021/04/04 05:11:51;;;;;;;14.90;5.20;;;6.30;51.30;;;;;;5012498;28;20275;-89
2021/04/04 05:14:17;;;;;;;10.95;4.40;;;6.40;51.20;;;;;;4997321;28;20173;-88
2021/04/04 05:16:47;;;;;;;17.40;5.37;;;6.40;50.90;;;;;;4997193;28;20652;-87
2021/04/04 05:19:13;;;;;;;15.60;5.30;;;6.50;50.90;;;;;;4996732;28;20174;-87
2021/04/04 05:21:41;;;;;;;10.70;4.60;;;6.30;51.00;;;;;;4996086;28;20170;-89
2021/04/04 05:24:13;;;;;;;12.88;5.45;;;6.40;51.20;;;;;;4996375;28;20535;-90
2021/04/04 05:26:48;;;;;;;13.98;5.95;;;6.50;51.20;;;;;;4997364;28;20192;-89
2021/04/04 05:29:20;;;;;;;14.77;5.63;;;6.50;51.10;;;;;;4995976;28;20169;-89
2021/04/04 05:31:54;;;;;;;7.05;5.40;;;6.40;51.00;;;;;;4996996;28;20182;-89
2021/04/04 05:34:28;;;;;;;10.68;5.95;;;6.40;51.20;;;;;;4997074;28;20179;-88
2021/04/04 05:37:03;;;;;;;14.48;6.50;;;6.50;51.20;;;;;;4995932;28;20169;-90
2021/04/04 05:39:33;;;;;;;18.95;5.93;;;6.50;51.00;;;;;;4995643;28;20173;-89
2021/04/04 05:42:09;;;;;;;23.73;17.83;;;6.60;50.80;;;;;;4996849;28;20524;-90
2021/04/04 05:44:55;;;;;;;12.77;6.55;;;6.60;50.60;;;;;;4995458;28;20740;-89
2021/04/04 05:47:33;;;;;;;17.83;11.43;;;6.60;50.50;;;;;;4995156;28;20217;-91
2021/04/04 05:50:04;;;;;;;8.77;6.45;;;6.30;50.20;;;;;;5011872;28;20173;-88
2021/04/04 05:52:45;;;;;;;12.05;7.45;;;6.60;50.00;;;;;;4996305;28;20593;-89
2021/04/04 05:55:32;;;;;;;22.48;6.82;;;6.60;50.10;;;;;;4996609;28;20173;-88
2021/04/04 05:58:06;;;;;;;8.73;5.90;;;6.60;50.10;;;;;;4996781;28;20208;-89
2021/04/04 06:00:37;;;;;;;12.55;5.95;;;6.60;50.00;;;;;;4995414;28;20777;-90
2021/04/04 06:03:12;;;;;;;8.43;4.85;;;6.60;49.70;;;;;;4995827;28;20198;-88
2021/04/04 06:05:52;;;;;;;10.27;5.13;;;6.60;50.00;;;;;;4996739;28;20176;-88
2021/04/04 06:08:36;;;;;;;5.40;4.15;;;6.70;50.40;;;;;;5012646;28;20165;-89
2021/04/04 06:11:15;;;;;;;8.23;4.35;;;6.70;50.60;;;;;;5012781;28;20177;-87
2021/04/04 06:14:19;;;;;;;10.95;4.65;;;6.70;50.00;;;;;;5012498;28;20184;-88
2021/04/04 06:17:07;;;;;;;10.55;5.35;;;6.70;50.10;;;;;;4993515;28;20184;-89
2021/04/04 06:19:57;;;;;;;9.20;4.72;;;6.70;50.20;;;;;;5011956;28;20173;-89
2021/04/04 06:23:00;;;;;;;9.93;4.88;;;6.70;50.40;;;;;;4996537;28;20173;-89
2021/04/04 06:25:41;;;;;;;8.73;5.03;;;6.60;50.00;;;;;;5012134;28;20188;-90
2021/04/04 06:28:23;;;;;;;5.90;4.45;;;6.80;50.10;;;;;;4995507;28;20173;-89
2021/04/04 06:31:09;;;;;;;12.10;3.97;;;6.80;50.20;;;;;;4996211;28;20165;-89
2021/04/04 06:33:39;;;;;;;4.80;3.95;;;6.80;50.40;;;;;;4987890;28;20200;-88
2021/04/04 06:36:35;;;;;;;12.93;4.20;;;6.70;50.00;;;;;;4996517;28;20228;-89
2021/04/04 06:39:19;;;;;;;5.53;3.83;;;6.80;50.10;;;;;;4996033;28;20537;-88
2021/04/04 06:41:51;;;;;;;7.65;3.88;;;6.90;49.90;;;;;;4999185;28;20329;-88
2021/04/04 06:44:46;;;;;;;9.98;5.03;;;7.00;50.00;;;;;;5012176;28;20197;-87
2021/04/04 06:47:44;;;;;;;15.32;4.18;;;7.10;49.70;;;;;;5011823;28;20225;-88
2021/04/04 06:50:21;;;;;;;9.35;3.92;;;7.10;49.60;;;;;;4976462;28;20244;-89
2021/04/04 06:53:17;;;;;;;11.13;3.92;;;7.20;49.80;;;;;;4675909;28;10000609;-89
2021/04/04 06:55:50;;;;;;;6.03;3.20;;;7.20;49.30;;;;;;4974697;28;20386;-89
2021/04/04 06:58:28;;;;;;;10.68;4.38;;;7.20;49.40;;;;;;4976804;28;20658;-89
2021/04/04 07:00:54;;;;;;;11.45;4.30;;;7.20;49.30;;;;;;4974404;28;20273;-89
2021/04/04 07:03:23;;;;;;;6.57;4.30;;;7.10;49.30;;;;;;4973318;28;20276;-89
2021/04/04 07:06:12;;;;;;;11.13;4.30;;;7.20;49.40;;;;;;4972067;28;20170;-89
2021/04/04 07:08:49;;;;;;;4.03;3.17;;;7.20;49.60;;;;;;4971937;28;20669;-89
2021/04/04 07:11:17;;;;;;;6.20;3.30;;;7.20;49.90;;;;;;4973689;28;20166;-89
2021/04/04 07:13:55;;;;;;;5.22;3.28;;;7.30;49.80;;;;;;4988087;28;20645;-89
2021/04/04 07:16:39;;;;;;;7.65;3.25;;;7.30;49.40;;;;;;4973276;28;20174;-89
2021/04/04 07:19:27;;;;;;;7.75;4.05;;;7.30;49.50;;;;;;4988770;28;20220;-89
2021/04/04 07:22:07;;;;;;;9.10;3.67;;;7.20;49.60;;;;;;4974779;28;20265;-89
2021/04/04 07:24:36;;;;;;;4.05;3.38;;;7.20;50.00;;;;;;4974634;28;20284;-89
2021/04/04 07:27:23;;;;;;;6.60;3.10;;;7.20;49.80;;;;;;4975270;28;20241;-89
2021/04/04 07:33:20;;;;;;;10.95;4.55;;;7.30;49.90;;;;;;4990947;28;20188;-88
2021/04/04 07:36:07;;;;;;;5.15;3.28;;;7.40;49.70;;;;;;4974216;28;20210;-89
2021/04/04 07:38:49;;;;;;;7.47;3.40;;;7.50;49.60;;;;;;4990959;28;20621;-89
2021/04/04 07:41:23;;;;;;;4.97;3.50;;;7.60;49.50;;;;;;4990608;28;20413;-89
2021/04/04 07:44:19;;;;;;;4.20;3.35;;;7.50;49.60;;;;;;4991208;28;20208;-89
2021/04/04 07:47:03;;;;;;;7.97;3.22;;;7.50;49.70;;;;;;4989877;28;20635;-89
2021/04/04 07:49:40;;;;;;;6.10;4.00;;;7.40;49.90;;;;;;4975304;28;20733;-90
2021/04/04 07:52:38;;;;;;;5.15;3.00;;;7.50;50.10;;;;;;4990270;28;20209;-89
2021/04/04 07:55:09;;;;;;;7.30;3.05;;;7.40;50.30;;;;;;4973889;28;20241;-89
2021/04/04 07:57:42;;;;;;;5.93;3.33;;;7.50;50.20;;;;;;4975566;28;20256;-88
2021/04/04 08:00:10;;;;;;;5.90;2.60;;;7.50;50.30;;;;;;4975291;28;20174;-89
2021/04/04 08:02:47;;;;;;;3.40;2.55;;;7.50;50.00;;;;;;4990022;28;20178;-89
2021/04/04 08:05:15;;;;;;;4.73;3.00;;;7.40;50.10;;;;;;4975280;28;20578;-89
2021/04/04 08:07:42;;;;;;;10.02;3.25;;;7.40;50.40;;;;;;4975211;28;20449;-89
2021/04/04 08:10:17;;;;;;;2.83;2.63;;;7.40;50.50;;;;;;4975153;28;20170;-89
2021/04/04 08:12:58;;;;;;;6.93;3.57;;;7.60;50.20;;;;;;4975300;28;20253;-89
2021/04/04 08:15:27;;;;;;;4.43;3.20;;;7.60;50.00;;;;;;4990121;28;20421;-89
2021/04/04 08:17:54;;;;;;;5.17;3.33;;;7.60;50.30;;;;;;4975275;28;20162;-87
2021/04/04 08:20:31;;;;;;;3.43;3.23;;;7.60;50.30;;;;;;4990132;28;20428;-88
2021/04/04 08:23:05;;;;;;;6.88;2.65;;;7.70;50.20;;;;;;4989864;28;20552;-88
2021/04/04 08:25:54;;;;;;;12.07;3.20;;;7.60;50.10;;;;;;4974837;28;20174;-89
2021/04/04 08:28:29;;;;;;;2.70;2.50;;;7.70;50.20;;;;;;4971542;28;20417;-89
2021/04/04 08:31:01;;;;;;;4.20;2.70;;;7.60;50.10;;;;;;4989240;28;20428;-90
2021/04/04 08:33:36;;;;;;;3.53;2.85;;;7.40;50.10;;;;;;4989570;28;20202;-89
2021/04/04 08:36:03;;;;;;;6.20;3.05;;;7.50;50.10;;;;;;4989671;28;20170;-89
2021/04/04 08:38:41;;;;;;;3.13;2.90;;;7.50;50.40;;;;;;4989068;28;20184;-89
2021/04/04 08:41:09;;;;;;;4.13;2.40;;;7.60;50.40;;;;;;4994991;28;20643;-90
2021/04/04 08:43:37;;;;;;;2.50;2.30;;;7.20;50.10;;;;;;5005859;28;20704;-87
2021/04/04 08:46:41;;;;;;;2.05;2.00;;;7.40;50.40;;;;;;4303031;28;10000755;-89
2021/04/04 08:49:07;;;;;;;2.45;2.30;;;7.40;50.40;;;;;;4990121;28;20478;-88
2021/04/04 08:51:38;;;;;;;3.50;2.50;;;7.50;50.40;;;;;;4990303;28;20200;-89
2021/04/04 08:54:09;;;;;;;3.80;2.60;;;7.50;50.40;;;;;;4989983;28;20176;-89
2021/04/04 08:56:34;;;;;;;2.60;2.50;;;8.20;50.80;;;;;;5008084;28;20220;-88
2021/04/04 08:59:03;;;;;;;2.93;2.73;;;7.60;50.20;;;;;;4991393;28;20213;-88
2021/04/04 09:01:36;;;;;;;6.70;3.03;;;7.80;50.20;;;;;;4990746;28;20165;-88
2021/04/04 09:04:08;;;;;;;3.78;3.35;;;7.70;50.40;;;;;;4989021;28;20220;-89
2021/04/04 09:06:42;;;;;;;5.43;3.80;;;7.70;50.40;;;;;;4986703;28;20170;-89
2021/04/04 09:09:19;;;;;;;3.53;3.23;;;7.80;50.20;;;;;;4971945;28;20170;-90
2021/04/04 09:11:48;;;;;;;7.57;3.10;;;7.90;50.20;;;;;;5002965;28;20424;-89
2021/04/04 09:14:16;;;;;;;2.75;2.65;;;8.00;49.80;;;;;;4990664;28;20174;-89
2021/04/04 09:16:54;;;;;;;3.67;3.37;;;7.90;50.10;;;;;;4991980;28;20656;-89
2021/04/04 09:19:34;;;;;;;7.57;3.70;;;7.80;50.30;;;;;;4991258;28;20432;-88
2021/04/04 09:22:05;;;;;;;8.27;4.77;;;7.80;50.30;;;;;;4993117;28;20240;-88
2021/04/04 09:24:40;;;;;;;4.82;3.67;;;7.90;50.50;;;;;;4992122;28;20956;-88
2021/04/04 09:27:12;;;;;;;6.90;4.28;;;8.60;50.90;;;;;;4990277;28;20183;-88
2021/04/04 09:29:38;;;;;;;9.10;4.60;;;7.80;50.50;;;;;;4990147;28;20177;-89
2021/04/04 09:32:11;;;;;;;14.40;5.15;;;8.10;51.10;;;;;;4991813;28;20168;-88
2021/04/04 09:34:40;;;;;;;5.35;4.15;;;7.90;50.60;;;;;;4990451;28;20181;-89
2021/04/04 09:37:06;;;;;;;12.27;4.93;;;7.20;50.50;;;;;;4990691;28;20249;-89
2021/04/04 09:39:32;;;;;;;8.10;6.00;;;7.50;50.80;;;;;;4994228;28;20463;-89
2021/04/04 09:41:59;;;;;;;6.07;5.37;;;8.30;51.60;;;;;;5001099;28;20166;-87
2021/04/04 09:44:29;;;;;;;9.77;7.13;;;7.80;51.00;;;;;;4999977;28;20483;-87
2021/04/04 09:47:01;;;;;;;8.37;6.27;;;7.90;51.30;;;;;;5002611;28;20216;-90
2021/04/04 09:49:32;;;;;;;7.90;7.00;;;8.00;50.90;;;;;;5011507;28;20423;-90
2021/04/04 09:51:58;;;;;;;7.53;6.18;;;8.00;50.80;;;;;;5029495;28;20415;-90
2021/04/04 09:54:24;;;;;;;10.10;6.57;;;8.00;50.90;;;;;;5012675;28;20272;-89
2021/04/04 09:56:58;;;;;;;10.23;6.53;;;8.20;51.10;;;;;;5013173;28;20460;-89
2021/04/04 09:59:27;;;;;;;11.15;8.40;;;8.00;51.50;;;;;;5007236;28;20223;-89
2021/04/04 10:01:54;;;;;;;10.07;9.03;;;8.00;51.20;;;;;;4995792;28;20728;-89
2021/04/04 10:04:19;;;;;;;17.63;9.33;;;8.10;51.10;;;;;;4995644;28;20558;-89
2021/04/04 10:06:57;;;;;;;17.93;8.70;;;8.00;51.40;;;;;;4995981;28;20463;-90
2021/04/04 10:09:37;;;;;;;12.23;7.90;;;8.00;51.40;;;;;;4993818;28;20582;-90
2021/04/04 10:12:03;;;;;;;18.92;9.40;;;7.90;51.30;;;;;;4995119;28;20231;-89
2021/04/04 10:14:29;;;;;;;14.50;8.88;;;8.10;51.40;;;;;;4993997;28;20633;-90
2021/04/04 10:17:14;;;;;;;11.50;10.30;;;8.50;51.70;;;;;;4994507;28;20202;-88
2021/04/04 10:19:59;;;;;;;14.63;9.95;;;8.10;51.30;;;;;;4997216;28;20251;-89
2021/04/04 10:22:25;;;;;;;16.08;8.77;;;8.10;51.60;;;;;;4997665;28;20189;-89
2021/04/04 10:24:53;;;;;;;10.20;8.35;;;9.20;52.10;;;;;;4999549;28;20232;-89
2021/04/04 10:27:26;;;;;;;10.50;8.33;;;9.00;51.50;;;;;;4998078;28;20275;-89
2021/04/04 10:30:14;;;;;;;16.60;8.60;;;8.30;51.00;;;;;;4998380;28;20458;-88
2021/04/04 10:32:41;;;;;;;19.60;9.95;;;8.40;50.80;;;;;;4996755;28;20408;-88
2021/04/04 10:35:09;;;;;;;11.27;9.10;;;8.20;50.80;;;;;;4999005;28;20177;-89
2021/04/04 10:37:35;;;;;;;15.07;9.18;;;8.20;51.00;;;;;;4996998;28;20170;-88
2021/04/04 10:40:05;;;;;;;10.43;9.02;;;8.10;51.10;;;;;;4995064;28;20177;-88
2021/04/04 10:42:32;;;;;;;11.70;10.20;;;8.20;51.20;;;;;;4996650;28;20172;-89
2021/04/04 10:45:11;;;;;;;11.25;9.27;;;8.30;51.00;;;;;;4997892;28;20679;-89
2021/04/04 10:47:37;;;;;;;11.67;9.20;;;8.20;50.90;;;;;;4994485;28;20216;-87
2021/04/04 10:50:09;;;;;;;17.85;10.90;;;8.20;51.10;;;;;;4997941;28;20421;-89
2021/04/04 10:52:37;;;;;;;18.63;14.90;;;8.40;51.20;;;;;;4999007;28;20169;-89
2021/04/04 10:55:03;;;;;;;18.73;16.20;;;8.90;51.20;;;;;;4997964;28;20196;-89
2021/04/04 10:57:31;;;;;;;20.42;14.77;;;8.30;51.00;;;;;;5013345;28;20203;-88
2021/04/04 10:59:57;;;;;;;27.53;17.10;;;9.40;52.10;;;;;;5005358;28;20165;-88
2021/04/04 11:02:53;;;;;;;20.70;16.10;;;8.50;50.80;;;;;;4995152;28;20409;-89
2021/04/04 11:05:20;;;;;;;20.70;16.50;;;8.00;50.90;;;;;;4996344;28;20189;-89
2021/04/04 11:07:48;;;;;;;23.00;15.77;;;8.10;51.00;;;;;;4998158;28;20815;-90
2021/04/04 11:10:32;;;;;;;18.58;16.23;;;8.20;50.80;;;;;;4995954;28;20483;-90
2021/04/04 11:13:01;;;;;;;17.33;15.53;;;9.30;51.30;;;;;;4649825;28;9999863;-88
2021/04/04 11:15:34;;;;;;;21.97;16.27;;;8.40;50.40;;;;;;4993598;28;20562;-88
2021/04/04 11:18:09;;;;;;;17.23;15.35;;;8.30;50.80;;;;;;4992591;28;20559;-89
2021/04/04 11:20:36;;;;;;;20.25;15.98;;;8.40;51.00;;;;;;4993041;28;20612;-89
2021/04/04 11:23:02;;;;;;;22.20;17.58;;;8.10;50.30;;;;;;4993200;28;20247;-89
2021/04/04 11:25:29;;;;;;;20.02;17.33;;;8.40;50.70;;;;;;4996467;28;20216;-88
2021/04/04 11:27:58;;;;;;;26.13;16.27;;;8.30;50.50;;;;;;4993804;28;20231;-89
2021/04/04 11:30:32;;;;;;;19.92;13.98;;;9.40;51.40;;;;;;4993822;28;20186;-88
2021/04/04 11:33:26;;;;;;;16.80;13.88;;;8.40;50.80;;;;;;4993576;28;20259;-88
2021/04/04 11:36:11;;;;;;;22.13;15.10;;;8.40;50.50;;;;;;4992682;28;20205;-89
2021/04/04 11:38:57;;;;;;;34.20;23.53;;;9.50;51.20;;;;;;4993154;28;20165;-88
2021/04/04 11:41:27;;;;;;;27.27;21.13;;;8.50;50.60;;;;;;4992113;28;20508;-90
2021/04/04 11:44:20;;;;;;;22.95;19.55;;;9.40;50.80;;;;;;4991856;28;20205;-88
2021/04/04 11:46:54;;;;;;;29.47;18.30;;;8.60;50.30;;;;;;4991714;28;20344;-88
2021/04/04 11:49:36;;;;;;;21.60;16.60;;;8.60;50.40;;;;;;4993067;28;20456;-87
2021/04/04 11:52:11;;;;;;;17.03;15.30;;;8.90;50.90;;;;;;4993319;28;20452;-90
2021/04/04 11:54:49;;;;;;;22.13;16.07;;;8.40;50.80;;;;;;4993889;28;20426;-91
2021/04/04 11:57:29;;;;;;;19.70;13.93;;;8.50;50.80;;;;;;4992972;28;20440;-89
2021/04/04 12:00:10;;;;;;;17.40;14.50;;;8.50;50.50;;;;;;4995766;28;20482;-89
2021/04/04 12:02:40;;;;;;;21.40;14.60;;;8.70;50.20;;;;;;4994457;28;20451;-89
2021/04/04 12:05:14;;;;;;;16.25;13.20;;;9.50;50.60;;;;;;4994103;28;20796;-87
2021/04/04 12:07:52;;;;;;;20.50;14.40;;;9.10;50.00;;;;;;4994058;28;20625;-88
2021/04/04 12:10:47;;;;;;;19.98;15.07;;;8.70;49.80;;;;;;4995068;28;20420;-85
2021/04/04 12:13:17;;;;;;;40.45;24.42;;;8.70;50.70;;;;;;4988500;28;20213;-87
2021/04/04 12:15:51;;;;;;;25.02;14.40;;;8.60;49.90;;;;;;4993754;28;20181;-87
2021/04/04 12:18:18;;;;;;;16.43;14.13;;;8.70;49.70;;;;;;4993063;28;20271;-90
2021/04/04 12:20:45;;;;;;;21.73;15.43;;;8.70;50.00;;;;;;4993931;28;20465;-87
2021/04/04 12:23:13;;;;;;;18.13;15.63;;;8.90;49.90;;;;;;4994360;28;20505;-88
2021/04/04 12:25:39;;;;;;;21.43;15.43;;;8.40;49.00;;;;;;5000397;28;20196;-85
2021/04/04 12:28:05;;;;;;;20.98;15.55;;;8.80;49.20;;;;;;4994479;28;20967;-87
2021/04/04 12:30:41;;;;;;;16.03;14.33;;;9.00;49.00;;;;;;4995686;28;20184;-88
2021/04/04 12:33:20;;;;;;;19.23;16.42;;;9.10;49.40;;;;;;4994969;28;20408;-87
2021/04/04 12:35:49;;;;;;;15.50;14.03;;;9.00;48.80;;;;;;4995295;28;20572;-88
2021/04/04 12:38:36;;;;;;;18.07;16.27;;;9.20;49.20;;;;;;4997377;28;20420;-90
2021/04/04 12:41:04;;;;;;;19.80;15.07;;;9.30;48.60;;;;;;5007000;28;20436;-89
2021/04/04 12:43:29;;;;;;;23.17;19.53;;;9.60;48.10;;;;;;4995136;28;20448;-89
2021/04/04 12:45:55;;;;;;;23.87;16.47;;;9.60;47.80;;;;;;4994412;28;20424;-87
2021/04/04 12:48:23;;;;;;;21.47;19.17;;;9.60;48.40;;;;;;4993814;28;20280;-89
2021/04/04 12:50:57;;;;;;;19.43;16.03;;;9.80;47.60;;;;;;4994571;28;20416;-88
2021/04/04 12:53:36;;;;;;;18.10;16.23;;;9.80;47.20;;;;;;4993218;28;20924;-87
2021/04/04 12:56:02;;;;;;;24.03;16.70;;;10.60;47.00;;;;;;4993573;28;20420;-87
2021/04/04 12:58:36;;;;;;;20.33;16.10;;;9.90;47.60;;;;;;4992784;28;20412;-88
2021/04/04 13:01:04;;;;;;;22.07;15.23;;;9.70;47.30;;;;;;4992851;28;20431;-88
2021/04/04 13:03:37;;;;;;;16.97;15.13;;;10.00;46.80;;;;;;4994333;28;20475;-88
2021/04/04 13:06:06;;;;;;;23.80;16.53;;;9.90;47.50;;;;;;4995721;28;21182;-87
2021/04/04 13:08:35;;;;;;;17.73;13.93;;;9.80;46.90;;;;;;4995697;28;20574;-87
2021/04/04 13:11:10;;;;;;;15.20;13.57;;;10.40;46.50;;;;;;4993202;28;20447;-87
2021/04/04 13:13:40;;;;;;;17.83;15.60;;;10.00;46.20;;;;;;4994298;28;20431;-88
2021/04/04 13:16:10;;;;;;;18.70;15.07;;;10.50;46.70;;;;;;4992692;28;20810;-86
2021/04/04 13:18:46;;;;;;;20.50;15.27;;;9.80;46.60;;;;;;4994636;28;20408;-84